createdAt,value
2016-07-25T06:36:04.766Z,23.76
2016-07-25T06:37:04.790Z,23.72
2016-07-25T06:38:04.818Z,23.83
2016-07-25T06:39:04.844Z,23.7
2016-07-25T06:40:04.870Z,23.75
2016-07-25T06:41:04.895Z,23.83
2016-07-25T06:42:04.925Z,23.76
2016-07-25T06:43:04.948Z,23.84
2016-07-25T06:44:04.975Z,23.75
2016-07-25T06:45:05.019Z,23.9
2016-07-25T06:46:05.038Z,23.85
2016-07-25T06:47:05.062Z,23.83
2016-07-25T06:48:05.091Z,23.83
2016-07-25T06:49:05.112Z,23.79
2016-07-25T06:51:05.167Z,23.84
2016-07-25T06:52:05.194Z,23.85
2016-07-25T06:53:05.221Z,23.9
2016-07-25T06:54:05.244Z,23.91
2016-07-25T06:55:05.275Z,23.91
2016-07-25T06:56:06.006Z,23.93
2016-07-25T06:57:05.338Z,23.93
2016-07-25T06:58:05.355Z,23.94
2016-07-25T06:59:05.380Z,24
2016-07-25T07:00:05.412Z,24.06
2016-07-25T07:01:05.437Z,24
2016-07-25T07:02:05.462Z,24.05
2016-07-25T07:03:05.488Z,24.15
2016-07-25T07:04:05.525Z,24.12
2016-07-25T07:05:05.548Z,23.94
2016-07-25T07:06:05.571Z,24.02
2016-07-25T07:07:05.601Z,24.1
2016-07-25T07:08:05.626Z,24.02
2016-07-25T07:09:05.651Z,24.08
2016-07-25T07:10:05.682Z,24.08
2016-07-25T07:11:05.707Z,24.05
2016-07-25T07:12:05.732Z,24.08
2016-07-25T07:13:05.761Z,23.93
2016-07-25T07:14:05.799Z,24.05
2016-07-25T07:15:05.816Z,24
2016-07-25T07:16:05.842Z,23.97
2016-07-25T07:17:05.869Z,23.97
2016-07-25T07:18:05.895Z,23.94
2016-07-25T07:19:05.925Z,23.93
2016-07-25T07:20:05.949Z,23.93
2016-07-25T07:21:05.976Z,23.91
2016-07-25T07:22:07.225Z,23.95
2016-07-25T07:23:06.052Z,24.05
2016-07-25T07:24:06.058Z,24.1
2016-07-25T07:25:06.095Z,24.16
2016-07-25T07:26:06.114Z,24.2
2016-07-25T07:27:06.136Z,24.3
2016-07-25T07:28:06.164Z,24.35
2016-07-25T07:29:06.896Z,24.34
2016-07-25T07:30:06.224Z,24.73
2016-07-25T07:31:06.263Z,25.03
2016-07-25T07:32:06.275Z,25.23
2016-07-25T07:33:06.306Z,25.51
2016-07-25T07:34:06.326Z,25.85
2016-07-25T07:35:06.375Z,25.87
2016-07-25T07:36:06.381Z,26.13
2016-07-25T07:37:06.411Z,25.94
2016-07-25T07:38:06.442Z,25.9
2016-07-25T07:39:06.466Z,26.02
2016-07-25T07:40:06.494Z,26.12
2016-07-25T07:41:06.518Z,26.21
2016-07-25T07:42:06.550Z,26.37
2016-07-25T07:43:06.576Z,26.48
2016-07-25T07:44:06.603Z,26.72
2016-07-25T07:45:06.631Z,27.19
2016-07-25T07:46:06.673Z,27.14
2016-07-25T07:47:06.688Z,27.03
2016-07-25T07:48:06.715Z,27
2016-07-25T07:49:06.743Z,26.91
2016-07-25T07:50:06.770Z,26.87
2016-07-25T07:51:06.800Z,26.87
2016-07-25T07:52:06.830Z,26.94
2016-07-25T07:53:06.856Z,27.1
2016-07-25T07:54:06.891Z,27.22
2016-07-25T07:55:06.911Z,27.29
2016-07-25T07:56:06.941Z,27.4
2016-07-25T07:57:06.968Z,27.5
2016-07-25T07:58:07.001Z,27.6
2016-07-25T08:00:07.063Z,27.9
2016-07-25T08:01:07.089Z,27.84
2016-07-25T08:02:07.115Z,27.82
2016-07-25T08:03:07.156Z,27.84
2016-07-25T08:04:07.174Z,27.88
2016-07-25T08:05:07.201Z,27.87
2016-07-25T08:06:07.229Z,27.62
2016-07-25T08:07:07.254Z,27.63
2016-07-25T08:08:07.285Z,27.62
2016-07-25T08:09:07.314Z,27.59
2016-07-25T08:10:07.348Z,27.55
2016-07-25T08:11:07.371Z,27.7
2016-07-25T08:12:07.401Z,27.7
2016-07-25T08:13:07.431Z,27.85
2016-07-25T08:14:07.458Z,27.96
2016-07-25T08:15:07.487Z,27.84
2016-07-25T08:16:07.526Z,27.88
2016-07-25T08:17:07.546Z,27.96
2016-07-25T08:18:07.575Z,28.02
2016-07-25T08:19:07.604Z,28.03
2016-07-25T08:20:07.631Z,28.06
2016-07-25T08:21:07.662Z,28.11
2016-07-25T08:22:07.690Z,28.21
2016-07-25T08:23:07.715Z,28.19
2016-07-25T08:24:07.758Z,28.36
2016-07-25T08:25:07.780Z,28.39
2016-07-25T08:26:07.806Z,28.29
2016-07-25T08:27:07.833Z,28.37
2016-07-25T08:28:07.861Z,28.41
2016-07-25T08:29:07.898Z,28.29
2016-07-25T08:30:07.922Z,28.34
2016-07-25T08:31:07.949Z,28.39
2016-07-25T08:32:07.998Z,28.36
2016-07-25T08:33:08.012Z,28.39
2016-07-25T08:34:08.127Z,28.41
2016-07-25T08:35:08.065Z,28.37
2016-07-25T08:36:08.094Z,28.44
2016-07-25T08:37:08.125Z,28.44
2016-07-25T08:38:08.151Z,28.4
2016-07-25T08:39:08.182Z,28.44
2016-07-25T08:40:08.208Z,28.43
2016-07-25T08:41:08.239Z,28.4
2016-07-25T08:42:08.267Z,28.44
2016-07-25T08:43:08.298Z,28.41
2016-07-25T08:44:08.326Z,28.43
2016-07-25T08:45:08.357Z,28.33
2016-07-25T08:46:08.387Z,28.4
2016-07-25T08:47:08.417Z,28.39
2016-07-25T08:48:08.445Z,28.39
2016-07-25T08:49:08.472Z,28.41
2016-07-25T08:50:08.503Z,28.46
2016-07-25T08:51:08.534Z,28.4
2016-07-25T08:52:08.559Z,28.54
2016-07-25T08:53:08.590Z,28.43
2016-07-25T08:54:08.618Z,28.43
2016-07-25T08:55:08.648Z,28.55
2016-07-25T08:56:08.677Z,28.59
2016-07-25T08:57:08.714Z,28.55
2016-07-25T08:58:08.736Z,28.44
2016-07-25T08:59:08.764Z,28.55
2016-07-25T09:00:08.796Z,28.54
2016-07-25T09:01:08.832Z,28.52
2016-07-25T09:02:08.861Z,28.67
2016-07-25T09:03:08.890Z,28.71
2016-07-25T09:04:08.915Z,28.43
2016-07-25T09:05:08.948Z,28.4
2016-07-25T09:06:08.973Z,28.29
2016-07-25T09:07:09.014Z,28.14
2016-07-25T09:08:09.031Z,27.92
2016-07-25T09:09:09.058Z,27.82
2016-07-25T09:10:10.056Z,28.04
2016-07-25T09:11:09.119Z,27.99
2016-07-25T09:12:09.148Z,27.96
2016-07-25T09:13:09.177Z,28.12
2016-07-25T09:14:09.209Z,28.19
2016-07-25T09:15:09.235Z,28.25
2016-07-25T09:16:09.262Z,28.18
2016-07-25T09:17:09.295Z,28
2016-07-25T09:18:09.321Z,28.02
2016-07-25T09:19:09.348Z,28.02
2016-07-25T09:20:09.379Z,28.04
2016-07-25T09:21:09.407Z,27.99
2016-07-25T09:22:09.433Z,28.11
2016-07-25T09:23:09.465Z,27.77
2016-07-25T09:24:09.490Z,28.12
2016-07-25T09:25:09.520Z,28.04
2016-07-25T09:26:09.547Z,28.04
2016-07-25T09:27:09.577Z,28.06
2016-07-25T09:28:09.606Z,28.02
2016-07-25T09:29:09.634Z,27.92
2016-07-25T09:30:09.661Z,27.44
2016-07-25T09:31:09.694Z,27.81
2016-07-25T09:32:09.720Z,27.47
2016-07-25T09:33:09.747Z,27.79
2016-07-25T09:34:09.776Z,27.7
2016-07-25T09:35:09.803Z,27.81
2016-07-25T09:36:09.881Z,27.66
2016-07-25T09:37:09.862Z,27.5
2016-07-25T09:38:09.890Z,27.81
2016-07-25T09:39:09.916Z,27.92
2016-07-25T09:40:09.949Z,27.85
2016-07-25T09:41:09.977Z,28.09
2016-07-25T09:42:10.005Z,28.14
2016-07-25T09:43:10.040Z,28.22
2016-07-25T09:44:10.069Z,28.33
2016-07-25T09:45:10.092Z,28.33
2016-07-25T09:46:10.121Z,28.39
2016-07-25T09:47:10.149Z,28.54
2016-07-25T09:48:10.186Z,28.55
2016-07-25T09:49:10.207Z,28.56
2016-07-25T09:50:10.239Z,28.64
2016-07-25T09:51:10.264Z,28.59
2016-07-25T09:52:10.296Z,28.58
2016-07-25T09:53:10.324Z,28.61
2016-07-25T09:54:10.351Z,28.62
2016-07-25T09:55:10.383Z,28.67
2016-07-25T09:56:10.413Z,28.67
2016-07-25T09:57:10.446Z,28.78
2016-07-25T09:58:10.472Z,28.76
2016-07-25T09:59:10.504Z,28.92
2016-07-25T10:00:10.531Z,28.88
2016-07-25T10:01:10.561Z,28.86
2016-07-25T10:02:10.590Z,28.85
2016-07-25T10:03:10.616Z,28.86
2016-07-25T10:04:10.648Z,28.8
2016-07-25T10:05:10.679Z,28.88
2016-07-25T10:06:10.709Z,28.89
2016-07-25T10:07:10.737Z,28.86
2016-07-25T10:08:10.762Z,28.81
2016-07-25T10:09:10.797Z,28.85
2016-07-25T10:10:10.828Z,29
2016-07-25T10:11:10.856Z,29.02
2016-07-25T10:12:10.885Z,29.09
2016-07-25T10:13:10.912Z,29.09
2016-07-25T10:14:10.945Z,29.18
2016-07-25T10:15:10.974Z,29.18
2016-07-25T10:16:11.002Z,29.28
2016-07-25T10:17:11.037Z,29.27
2016-07-25T10:18:11.062Z,29.37
2016-07-25T10:19:11.091Z,29.36
2016-07-25T10:20:11.121Z,29.34
2016-07-25T10:21:11.165Z,29.39
2016-07-25T10:22:11.183Z,29.37
2016-07-25T10:23:11.216Z,29.41
2016-07-25T10:24:11.249Z,29.34
2016-07-25T10:25:11.272Z,29.36
2016-07-25T10:26:11.300Z,29.39
2016-07-25T10:27:11.332Z,29.42
2016-07-25T10:28:11.359Z,29.37
2016-07-25T10:29:11.390Z,29.57
2016-07-25T10:30:11.418Z,29.46
2016-07-25T10:31:11.451Z,29.51
2016-07-25T10:32:11.481Z,29.57
2016-07-25T10:33:11.511Z,29.49
2016-07-25T10:34:11.541Z,29.48
2016-07-25T10:35:11.569Z,29.53
2016-07-25T10:36:11.611Z,29.61
2016-07-25T10:37:11.635Z,29.63
2016-07-25T10:38:11.666Z,29.58
2016-07-25T10:39:11.691Z,29.58
2016-07-25T10:40:11.721Z,29.52
2016-07-25T10:41:11.752Z,29.55
2016-07-25T10:42:11.779Z,29.57
2016-07-25T10:43:11.812Z,29.61
2016-07-25T10:44:11.840Z,29.65
2016-07-25T10:45:11.872Z,29.53
2016-07-25T10:46:11.902Z,29.58
2016-07-25T10:47:11.929Z,29.58
2016-07-25T10:48:11.962Z,29.6
2016-07-25T10:49:11.999Z,29.58
2016-07-25T10:50:12.021Z,29.57
2016-07-25T10:51:12.050Z,29.51
2016-07-25T10:52:12.078Z,29.58
2016-07-25T10:53:12.110Z,29.57
2016-07-25T10:54:12.141Z,29.63
2016-07-25T10:55:12.171Z,29.58
2016-07-25T10:56:12.200Z,29.51
2016-07-25T10:57:12.227Z,29.58
2016-07-25T10:58:12.261Z,29.6
2016-07-25T10:59:12.292Z,29.58
2016-07-25T11:00:12.319Z,29.55
2016-07-25T11:01:12.351Z,29.45
2016-07-25T11:02:12.379Z,29.41
2016-07-25T11:03:13.108Z,29.45
2016-07-25T11:04:12.437Z,29.63
2016-07-25T11:05:12.471Z,29.63
2016-07-25T11:06:12.496Z,29.7
2016-07-25T11:07:12.529Z,29.63
2016-07-25T11:08:12.574Z,29.71
2016-07-25T11:09:12.588Z,29.86
2016-07-25T11:10:12.618Z,29.83
2016-07-25T11:11:12.650Z,29.85
2016-07-25T11:12:12.681Z,29.8
2016-07-25T11:13:12.707Z,29.85
2016-07-25T11:14:12.739Z,29.73
2016-07-25T11:15:12.770Z,29.78
2016-07-25T11:16:12.801Z,29.71
2016-07-25T11:17:12.827Z,29.57
2016-07-25T11:18:12.861Z,29.57
2016-07-25T11:19:12.891Z,29.53
2016-07-25T11:20:12.921Z,29.58
2016-07-25T11:21:12.954Z,29.58
2016-07-25T11:22:12.980Z,29.6
2016-07-25T11:23:13.015Z,29.6
2016-07-25T11:24:13.043Z,29.64
2016-07-25T11:25:13.073Z,29.58
2016-07-25T11:26:13.103Z,29.64
2016-07-25T11:27:13.133Z,29.6
2016-07-25T11:28:13.164Z,29.63
2016-07-25T11:29:13.193Z,29.57
2016-07-25T11:30:13.223Z,29.65
2016-07-25T11:31:13.253Z,29.63
2016-07-25T11:32:13.282Z,29.65
2016-07-25T11:33:13.315Z,29.63
2016-07-25T11:34:13.343Z,29.61
2016-07-25T11:35:13.374Z,29.49
2016-07-25T11:36:14.407Z,29.51
2016-07-25T11:37:13.436Z,29.41
2016-07-25T11:38:13.470Z,29.37
2016-07-25T11:39:13.493Z,29.19
2016-07-25T11:40:13.526Z,29.11
2016-07-25T11:41:13.559Z,29.11
2016-07-25T11:42:13.587Z,29.16
2016-07-25T11:43:13.617Z,29.21
2016-07-25T11:44:13.644Z,29.24
2016-07-25T11:45:13.685Z,29.26
2016-07-25T11:46:13.708Z,29.26
2016-07-25T11:47:13.737Z,29.19
2016-07-25T11:48:13.768Z,29.21
2016-07-25T11:49:13.797Z,29.09
2016-07-25T11:50:13.828Z,29.14
2016-07-25T11:51:13.858Z,29.11
2016-07-25T11:52:13.889Z,29.18
2016-07-25T11:53:13.917Z,29.14
2016-07-25T11:54:13.946Z,29.08
2016-07-25T11:55:13.978Z,29.26
2016-07-25T11:56:14.019Z,29.21
2016-07-25T11:57:14.036Z,29.18
2016-07-25T11:58:14.068Z,29.16
2016-07-25T11:59:14.096Z,29.21
2016-07-25T12:00:14.129Z,29.23
2016-07-25T12:01:14.172Z,29.18
2016-07-25T12:02:14.189Z,29.09
2016-07-25T12:03:14.219Z,29.11
2016-07-25T12:04:14.250Z,29.11
2016-07-25T12:05:14.279Z,29.02
2016-07-25T12:06:14.307Z,29.08
2016-07-25T12:07:14.341Z,29.11
2016-07-25T12:08:14.370Z,29.02
2016-07-25T12:09:14.397Z,29.16
2016-07-25T12:10:14.430Z,29.16
2016-07-25T12:11:14.467Z,29.16
2016-07-25T12:12:14.492Z,29.19
2016-07-25T12:13:14.520Z,29.21
2016-07-25T12:14:14.548Z,29.19
2016-07-25T12:15:14.580Z,29.15
2016-07-25T12:16:14.611Z,29.15
2016-07-25T12:17:14.641Z,29.11
2016-07-25T12:18:14.668Z,29.28
2016-07-25T12:19:14.701Z,29.18
2016-07-25T12:20:14.728Z,29.04
2016-07-25T12:21:14.762Z,28.9
2016-07-25T12:22:14.794Z,28.93
2016-07-25T12:23:14.819Z,28.76
2016-07-25T12:24:14.850Z,28.81
2016-07-25T12:25:14.878Z,28.74
2016-07-25T12:26:14.909Z,28.62
2016-07-25T12:27:14.941Z,28.73
2016-07-25T12:28:14.971Z,28.59
2016-07-25T12:29:15.000Z,28.58
2016-07-25T12:30:15.026Z,28.66
2016-07-25T12:31:15.058Z,28.68
2016-07-25T12:32:15.086Z,28.68
2016-07-25T12:33:15.119Z,28.77
2016-07-25T12:34:15.149Z,28.67
2016-07-25T12:35:15.179Z,28.78
2016-07-25T12:36:15.359Z,28.77
2016-07-25T12:37:15.234Z,28.8
2016-07-25T12:38:15.268Z,28.88
2016-07-25T12:39:15.297Z,28.83
2016-07-25T12:40:15.329Z,28.86
2016-07-25T12:41:15.357Z,28.68
2016-07-25T12:42:15.384Z,28.62
2016-07-25T12:43:15.418Z,28.59
2016-07-25T12:44:15.447Z,28.58
2016-07-25T12:45:15.477Z,28.54
2016-07-25T12:46:15.507Z,28.41
2016-07-25T12:47:15.535Z,28.4
2016-07-25T12:48:15.569Z,28.49
2016-07-25T12:49:15.603Z,28.41
2016-07-25T12:50:15.626Z,28.54
2016-07-25T12:51:15.657Z,28.24
2016-07-25T12:52:15.686Z,28.24
2016-07-25T12:53:16.418Z,28.15
2016-07-25T12:54:15.744Z,28.14
2016-07-25T12:55:15.781Z,28.22
2016-07-25T12:56:15.804Z,28.31
2016-07-25T12:57:15.834Z,28.36
2016-07-25T12:58:15.864Z,28.36
2016-07-25T12:59:15.890Z,28.31
2016-07-25T13:00:15.925Z,28.17
2016-07-25T13:01:15.954Z,28.24
2016-07-25T13:02:15.984Z,28.24
2016-07-25T13:03:16.013Z,28.31
2016-07-25T13:04:16.049Z,28.25
2016-07-25T13:05:16.074Z,28.25
2016-07-25T13:06:16.103Z,28.3
2016-07-25T13:07:16.136Z,28.3
2016-07-25T13:08:16.165Z,28.33
2016-07-25T13:09:16.191Z,28.39
2016-07-25T13:10:16.221Z,28.33
2016-07-25T13:11:16.249Z,28.02
2016-07-25T13:12:16.282Z,27.93
2016-07-25T13:13:16.309Z,27.97
2016-07-25T13:14:16.338Z,27.97
2016-07-25T13:15:16.370Z,27.99
2016-07-25T13:16:16.399Z,28
2016-07-25T13:17:16.428Z,28.07
2016-07-25T13:18:16.456Z,28.24
2016-07-25T13:19:16.488Z,28.24
2016-07-25T13:20:16.519Z,28.25
2016-07-25T13:21:16.546Z,28.44
2016-07-25T13:22:16.578Z,28.4
2016-07-25T13:23:16.604Z,28.43
2016-07-25T13:24:16.636Z,28.41
2016-07-25T13:25:16.663Z,28.43
2016-07-25T13:26:16.699Z,28.43
2016-07-25T13:27:16.725Z,28.52
2016-07-25T13:28:16.754Z,28.55
2016-07-25T13:29:16.784Z,28.46
2016-07-25T13:30:16.813Z,28.51
2016-07-25T13:31:16.846Z,28.52
2016-07-25T13:32:16.870Z,28.58
2016-07-25T13:33:16.905Z,28.61
2016-07-25T13:34:17.212Z,28.64
2016-07-25T13:35:16.965Z,28.66
2016-07-25T13:36:16.991Z,28.67
2016-07-25T13:37:17.025Z,28.68
2016-07-25T13:38:17.052Z,28.73
2016-07-25T13:39:17.084Z,28.8
2016-07-25T13:40:17.112Z,28.8
2016-07-25T13:41:17.142Z,28.88
2016-07-25T13:42:17.185Z,28.81
2016-07-25T13:43:17.203Z,28.89
2016-07-25T13:44:17.235Z,28.85
2016-07-25T13:45:17.262Z,28.88
2016-07-25T13:46:17.294Z,28.88
2016-07-25T13:47:17.324Z,28.88
2016-07-25T13:48:17.354Z,28.9
2016-07-25T13:49:17.386Z,29.02
2016-07-25T13:50:17.412Z,29.05
2016-07-25T13:51:17.445Z,29
2016-07-25T13:52:17.477Z,29.08
2016-07-25T13:53:17.504Z,29.04
2016-07-25T13:54:17.535Z,29.11
2016-07-25T13:55:17.572Z,28.93
2016-07-25T13:56:17.593Z,28.8
2016-07-25T13:57:17.627Z,28.67
2016-07-25T13:58:17.656Z,28.66
2016-07-25T13:59:17.690Z,28.49
2016-07-25T14:00:17.715Z,28.56
2016-07-25T14:01:17.746Z,28.54
2016-07-25T14:02:17.775Z,28.56
2016-07-25T14:03:17.806Z,28.64
2016-07-25T14:04:17.833Z,28.78
2016-07-25T14:05:17.865Z,28.88
2016-07-25T14:06:17.901Z,28.93
2016-07-25T14:07:17.924Z,29
2016-07-25T14:08:17.953Z,28.96
2016-07-25T14:09:17.984Z,29.02
2016-07-25T14:10:18.014Z,29.08
2016-07-25T14:11:18.042Z,29.09
2016-07-25T14:12:18.073Z,29.14
2016-07-25T14:13:18.101Z,29.15
2016-07-25T14:14:18.837Z,29.12
2016-07-25T14:15:18.164Z,29.15
2016-07-25T14:16:18.189Z,29.12
2016-07-25T14:17:18.225Z,29.09
2016-07-25T14:18:18.251Z,29.14
2016-07-25T14:19:18.284Z,29.12
2016-07-25T14:20:18.314Z,29.12
2016-07-25T14:21:18.344Z,29.21
2016-07-25T14:22:18.382Z,29.21
2016-07-25T14:23:18.418Z,29.12
2016-07-25T14:24:18.435Z,29.18
2016-07-25T14:25:18.470Z,29.15
2016-07-25T14:26:18.495Z,29.11
2016-07-25T14:27:18.521Z,29.12
2016-07-25T14:28:18.554Z,29.18
2016-07-25T14:29:18.586Z,29.16
2016-07-25T14:30:18.614Z,29.24
2016-07-25T14:31:18.651Z,29.09
2016-07-25T14:32:18.677Z,29.19
2016-07-25T14:33:18.714Z,29.15
2016-07-25T14:34:18.734Z,29.28
2016-07-25T14:35:18.768Z,29.27
2016-07-25T14:36:18.846Z,29.11
2016-07-25T14:37:18.832Z,29.21
2016-07-25T14:38:18.868Z,29.26
2016-07-25T14:39:18.887Z,29.27
2016-07-25T14:40:18.917Z,29.23
2016-07-25T14:41:18.946Z,29.28
2016-07-25T14:42:18.980Z,29.23
2016-07-25T14:43:19.008Z,29.28
2016-07-25T14:44:19.041Z,29.27
2016-07-25T14:45:19.068Z,29.3
2016-07-25T14:46:19.100Z,29.28
2016-07-25T14:47:19.128Z,29.41
2016-07-25T14:48:19.162Z,29.21
2016-07-25T14:49:19.189Z,29.21
2016-07-25T14:50:19.222Z,29.24
2016-07-25T14:51:19.251Z,29.19
2016-07-25T14:52:19.283Z,29.21
2016-07-25T14:53:19.311Z,29.27
2016-07-25T14:54:19.342Z,29.27
2016-07-25T14:55:19.373Z,29.34
2016-07-25T14:56:19.400Z,29.27
2016-07-25T14:57:19.435Z,29.36
2016-07-25T14:58:19.460Z,29.23
2016-07-25T14:59:19.496Z,29.26
2016-07-25T15:00:19.521Z,29.36
2016-07-25T15:01:19.556Z,29.31
2016-07-25T15:02:19.585Z,29.37
2016-07-25T15:03:19.614Z,29.31
2016-07-25T15:04:19.647Z,29.36
2016-07-25T15:05:19.675Z,29.33
2016-07-25T15:06:19.711Z,29.28
2016-07-25T15:07:19.735Z,29.3
2016-07-25T15:08:19.765Z,29.26
2016-07-25T15:09:19.797Z,29.27
2016-07-25T15:10:19.828Z,29.24
2016-07-25T15:11:19.858Z,29.31
2016-07-25T15:12:19.888Z,29.33
2016-07-25T15:13:19.920Z,29.33
2016-07-25T15:14:19.948Z,29.36
2016-07-25T15:15:19.976Z,29.28
2016-07-25T15:16:20.010Z,29.28
2016-07-25T15:17:20.040Z,29.33
2016-07-25T15:18:20.067Z,29.21
2016-07-25T15:19:20.106Z,29.28
2016-07-25T15:20:20.130Z,29.3
2016-07-25T15:21:20.162Z,29.37
2016-07-25T15:22:20.189Z,29.31
2016-07-25T15:23:20.222Z,29.27
2016-07-25T15:24:20.251Z,29.28
2016-07-25T15:25:20.282Z,29.36
2016-07-25T15:26:20.313Z,29.23
2016-07-25T15:27:20.341Z,29.23
2016-07-25T15:28:20.375Z,29.28
2016-07-25T15:29:20.401Z,29.24
2016-07-25T15:30:20.435Z,29.11
2016-07-25T15:31:20.462Z,29.26
2016-07-25T15:32:20.508Z,29.21
2016-07-25T15:33:20.522Z,29.27
2016-07-25T15:34:20.567Z,29.24
2016-07-25T15:35:20.583Z,29.16
2016-07-25T15:36:20.667Z,29.15
2016-07-25T15:37:20.646Z,29.18
2016-07-25T15:38:20.677Z,29.23
2016-07-25T15:39:20.708Z,29.19
2016-07-25T15:40:20.737Z,29.26
2016-07-25T15:41:20.766Z,29.15
2016-07-25T15:42:20.800Z,29.16
2016-07-25T15:43:20.829Z,29.21
2016-07-25T15:44:20.858Z,29.24
2016-07-25T15:45:20.887Z,29.23
2016-07-25T15:46:20.918Z,29.15
2016-07-25T15:48:20.979Z,29.16
2016-07-25T15:49:21.009Z,29.12
2016-07-25T15:50:21.052Z,29.16
2016-07-25T15:51:21.071Z,29.12
2016-07-25T15:52:21.100Z,29.14
2016-07-25T15:53:21.133Z,29.14
2016-07-25T15:54:21.161Z,29.14
2016-07-25T15:55:21.193Z,29.11
2016-07-25T15:56:21.222Z,29.06
2016-07-25T15:57:21.256Z,28.92
2016-07-25T15:58:21.282Z,28.96
2016-07-25T15:59:21.317Z,28.95
2016-07-25T16:00:21.347Z,28.93
2016-07-25T16:01:21.375Z,28.83
2016-07-25T16:02:21.418Z,28.85
2016-07-25T16:03:21.435Z,28.86
2016-07-25T16:04:21.464Z,28.85
2016-07-25T16:05:21.498Z,28.93
2016-07-25T16:06:21.534Z,28.92
2016-07-25T16:07:21.558Z,28.78
2016-07-25T16:08:21.588Z,28.71
2016-07-25T16:09:21.616Z,28.8
2016-07-25T16:10:21.648Z,28.77
2016-07-25T16:11:21.681Z,28.74
2016-07-25T16:12:21.711Z,28.8
2016-07-25T16:13:21.737Z,28.83
2016-07-25T16:14:21.773Z,28.86
2016-07-25T16:15:22.496Z,28.8
2016-07-25T16:16:21.833Z,28.81
2016-07-25T16:17:21.873Z,28.8
2016-07-25T16:18:21.890Z,28.71
2016-07-25T16:19:21.921Z,28.68
2016-07-25T16:20:21.951Z,28.66
2016-07-25T16:21:21.979Z,28.66
2016-07-25T16:22:22.009Z,28.55
2016-07-25T16:23:22.042Z,28.66
2016-07-25T16:24:22.069Z,28.62
2016-07-25T16:25:22.103Z,28.54
2016-07-25T16:26:22.132Z,28.55
2016-07-25T16:27:22.163Z,28.54
2016-07-25T16:28:22.198Z,28.55
2016-07-25T16:29:22.223Z,28.54
2016-07-25T16:30:22.252Z,28.61
2016-07-25T16:31:22.284Z,28.55
2016-07-25T16:33:22.347Z,28.55
2016-07-25T16:34:22.371Z,28.54
2016-07-25T16:35:22.406Z,28.52
2016-07-25T16:36:23.634Z,28.4
2016-07-25T16:37:22.465Z,28.37
2016-07-25T16:38:22.491Z,28.48
2016-07-25T16:39:22.522Z,28.37
2016-07-25T16:40:22.551Z,28.4
2016-07-25T16:41:22.585Z,28.3
2016-07-25T16:42:22.611Z,28.29
2016-07-25T16:43:22.649Z,28.3
2016-07-25T16:44:22.675Z,28.39
2016-07-25T16:45:22.706Z,28.36
2016-07-25T16:46:22.736Z,28.29
2016-07-25T16:47:22.777Z,28.19
2016-07-25T16:48:22.797Z,28.22
2016-07-25T16:49:22.824Z,28.18
2016-07-25T16:50:22.855Z,28.11
2016-07-25T16:51:22.885Z,28.18
2016-07-25T16:52:22.918Z,28.15
2016-07-25T16:53:22.945Z,28.12
2016-07-25T16:54:22.977Z,28.09
2016-07-25T16:55:23.005Z,28.09
2016-07-25T16:56:23.049Z,28.06
2016-07-25T16:57:23.066Z,28.12
2016-07-25T16:58:23.098Z,28.02
2016-07-25T16:59:23.125Z,28
2016-07-25T17:00:23.159Z,27.99
2016-07-25T17:01:23.188Z,27.97
2016-07-25T17:02:23.215Z,27.99
2016-07-25T17:03:23.247Z,27.9
2016-07-25T17:04:23.277Z,27.87
2016-07-25T17:05:23.306Z,27.82
2016-07-25T17:06:23.337Z,27.94
2016-07-25T17:07:23.365Z,27.9
2016-07-25T17:08:23.395Z,27.82
2016-07-25T17:09:23.426Z,27.79
2016-07-25T17:10:23.457Z,27.94
2016-07-25T17:11:23.486Z,27.77
2016-07-25T17:12:23.517Z,27.84
2016-07-25T17:13:23.551Z,27.92
2016-07-25T17:14:23.575Z,27.92
2016-07-25T17:15:23.605Z,27.84
2016-07-25T17:16:23.636Z,27.88
2016-07-25T17:17:23.679Z,27.85
2016-07-25T17:18:23.696Z,27.81
2016-07-25T17:19:23.722Z,27.79
2016-07-25T17:20:23.756Z,27.72
2016-07-25T17:21:23.786Z,27.77
2016-07-25T17:22:23.814Z,27.69
2016-07-25T17:23:23.849Z,27.72
2016-07-25T17:24:23.875Z,27.66
2016-07-25T17:25:23.917Z,27.77
2016-07-25T17:26:23.933Z,27.66
2016-07-25T17:27:24.686Z,27.69
2016-07-25T17:28:23.995Z,27.66
2016-07-25T17:29:24.026Z,27.66
2016-07-25T17:30:24.060Z,27.65
2016-07-25T17:31:24.083Z,27.69
2016-07-25T17:33:24.146Z,27.63
2016-07-25T17:34:24.174Z,27.51
2016-07-25T17:35:24.203Z,27.62
2016-07-25T17:36:24.287Z,27.6
2016-07-25T17:37:24.266Z,27.57
2016-07-25T17:38:24.295Z,27.54
2016-07-25T17:39:24.325Z,27.44
2016-07-25T17:40:24.352Z,27.46
2016-07-25T17:41:24.390Z,27.46
2016-07-25T17:42:24.419Z,27.46
2016-07-25T17:43:24.450Z,27.49
2016-07-25T17:44:24.475Z,27.44
2016-07-25T17:45:24.510Z,27.41
2016-07-25T17:46:24.534Z,27.49
2016-07-25T17:48:24.592Z,27.41
2016-07-25T17:49:24.623Z,27.44
2016-07-25T17:50:24.654Z,27.32
2016-07-25T17:51:24.681Z,27.37
2016-07-25T17:52:24.712Z,27.34
2016-07-25T17:53:24.743Z,27.36
2016-07-25T17:54:24.772Z,27.4
2016-07-25T17:55:24.802Z,27.36
2016-07-25T17:56:24.828Z,27.32
2016-07-25T17:57:24.860Z,27.37
2016-07-25T17:58:24.895Z,27.34
2016-07-25T17:59:24.921Z,27.34
2016-07-25T18:00:24.955Z,27.34
2016-07-25T18:01:24.977Z,27.32
2016-07-25T18:03:25.039Z,27.31
2016-07-25T18:04:25.069Z,27.34
2016-07-25T18:05:25.094Z,27.24
2016-07-25T18:06:25.127Z,27.27
2016-07-25T18:07:25.159Z,27.19
2016-07-25T18:08:25.185Z,27.31
2016-07-25T18:09:25.219Z,27.25
2016-07-25T18:10:25.246Z,27.19
2016-07-25T18:11:25.276Z,27.19
2016-07-25T18:12:25.311Z,27.17
2016-07-25T18:13:25.336Z,27.17
2016-07-25T18:14:25.365Z,27.24
2016-07-25T18:15:25.408Z,27.14
2016-07-25T18:16:25.428Z,27.14
2016-07-25T18:18:25.484Z,27.22
2016-07-25T18:19:25.515Z,27.17
2016-07-25T18:20:25.543Z,27.17
2016-07-25T18:21:25.575Z,27.02
2016-07-25T18:22:25.603Z,27.14
2016-07-25T18:23:25.633Z,27.12
2016-07-25T18:24:25.663Z,27
2016-07-25T18:25:25.692Z,27.06
2016-07-25T18:26:25.722Z,27.03
2016-07-25T18:27:25.753Z,27.04
2016-07-25T18:28:25.791Z,27
2016-07-25T18:29:25.812Z,27
2016-07-25T18:30:25.840Z,27
2016-07-25T18:31:25.871Z,26.99
2016-07-25T18:33:25.930Z,26.88
2016-07-25T18:34:25.968Z,26.94
2016-07-25T18:35:25.988Z,26.88
2016-07-25T18:36:26.068Z,26.88
2016-07-25T18:37:26.047Z,26.87
2016-07-25T18:38:26.079Z,26.82
2016-07-25T18:39:26.107Z,26.82
2016-07-25T18:40:26.136Z,26.8
2016-07-25T18:41:26.167Z,26.73
2016-07-25T18:42:26.195Z,26.73
2016-07-25T18:43:26.227Z,26.7
2016-07-25T18:44:26.255Z,26.75
2016-07-25T18:45:26.284Z,26.63
2016-07-25T18:46:26.315Z,26.63
2016-07-25T18:48:26.374Z,26.62
2016-07-25T18:49:26.401Z,26.63
2016-07-25T18:50:26.439Z,26.65
2016-07-25T18:51:26.460Z,26.55
2016-07-25T18:52:26.492Z,26.51
2016-07-25T18:53:26.524Z,26.54
2016-07-25T18:54:26.547Z,26.5
2016-07-25T18:55:26.588Z,26.47
2016-07-25T18:56:26.607Z,26.47
2016-07-25T18:57:26.639Z,26.37
2016-07-25T18:58:26.668Z,26.39
2016-07-25T18:59:26.698Z,26.35
2016-07-25T19:00:26.726Z,26.29
2016-07-25T19:01:26.754Z,26.26
2016-07-25T19:03:26.813Z,26.25
2016-07-25T19:04:26.846Z,26.26
2016-07-25T19:05:26.874Z,26.21
2016-07-25T19:06:26.927Z,26.13
2016-07-25T19:07:26.934Z,26.07
2016-07-25T19:08:26.961Z,26.2
2016-07-25T19:09:26.996Z,26.18
2016-07-25T19:10:27.022Z,26.12
2016-07-25T19:11:27.049Z,26.1
2016-07-25T19:12:27.080Z,26.06
2016-07-25T19:13:27.108Z,26.1
2016-07-25T19:14:27.138Z,26.02
2016-07-25T19:15:27.166Z,26.09
2016-07-25T19:16:27.198Z,26.07
2016-07-25T19:18:27.256Z,25.95
2016-07-25T19:19:27.283Z,25.9
2016-07-25T19:20:27.315Z,25.94
2016-07-25T19:21:27.345Z,25.98
2016-07-25T19:22:27.371Z,25.95
2016-07-25T19:23:28.107Z,25.92
2016-07-25T19:24:27.437Z,25.91
2016-07-25T19:25:27.459Z,25.87
2016-07-25T19:26:27.489Z,25.83
2016-07-25T19:27:27.516Z,25.91
2016-07-25T19:28:27.545Z,25.87
2016-07-25T19:29:27.574Z,25.85
2016-07-25T19:30:27.604Z,25.88
2016-07-25T19:31:27.634Z,25.77
2016-07-25T19:32:27.664Z,25.83
2016-07-25T19:33:27.703Z,25.77
2016-07-25T19:34:27.718Z,25.82
2016-07-25T19:35:27.751Z,25.72
2016-07-25T19:36:27.778Z,25.8
2016-07-25T19:37:27.806Z,25.76
2016-07-25T19:38:27.834Z,25.67
2016-07-25T19:39:27.864Z,25.67
2016-07-25T19:40:27.891Z,25.76
2016-07-25T19:41:27.921Z,25.62
2016-07-25T19:42:27.950Z,25.72
2016-07-25T19:43:27.980Z,25.61
2016-07-25T19:44:28.009Z,25.64